createdAt,value
2023-05-21T00:01:48.604Z,16.41
2023-05-21T00:04:15.158Z,16.58
2023-05-21T00:06:41.609Z,16.67
2023-05-21T00:09:08.060Z,16.71
2023-05-21T00:11:34.785Z,16.38
2023-05-21T00:14:01.216Z,16.33
2023-05-21T00:16:27.903Z,16.13
2023-05-21T00:18:54.831Z,16.26
2023-05-21T00:21:21.223Z,16.39
2023-05-21T00:23:47.691Z,16.49
2023-05-21T00:26:14.157Z,16.57
2023-05-21T00:28:40.754Z,16.55
2023-05-21T00:31:07.159Z,16.60
2023-05-21T00:33:33.699Z,16.66
2023-05-21T00:36:00.487Z,16.67
2023-05-21T00:38:26.966Z,16.69
2023-05-21T00:40:53.434Z,16.71
2023-05-21T00:43:19.916Z,16.71
2023-05-21T00:45:46.395Z,16.68
2023-05-21T00:48:12.901Z,16.65
2023-05-21T00:50:39.348Z,16.61
2023-05-21T00:53:05.833Z,16.61
2023-05-21T00:55:32.769Z,16.59
2023-05-21T00:57:59.220Z,16.53
2023-05-21T01:00:25.604Z,16.47
2023-05-21T01:02:52.200Z,16.42
2023-05-21T01:05:21.109Z,16.33
2023-05-21T01:07:47.551Z,16.31
2023-05-21T01:10:14.104Z,16.33
2023-05-21T01:12:40.541Z,16.30
2023-05-21T01:15:07.055Z,16.23
2023-05-21T01:17:33.532Z,16.25
2023-05-21T01:19:59.986Z,16.07
2023-05-21T01:22:26.680Z,16.11
2023-05-21T01:24:53.132Z,16.14
2023-05-21T01:27:19.472Z,16.15
2023-05-21T01:29:46.186Z,16.15
2023-05-21T01:32:12.921Z,16.07
2023-05-21T01:34:39.388Z,16.09
2023-05-21T01:37:06.279Z,16.10
2023-05-21T01:39:32.828Z,16.07
2023-05-21T01:41:59.240Z,16.02
2023-05-21T01:44:25.705Z,15.99
2023-05-21T01:46:52.195Z,16.02
2023-05-21T01:49:18.849Z,15.85
2023-05-21T01:51:45.270Z,15.86
2023-05-21T01:54:11.762Z,15.83
2023-05-21T01:56:38.176Z,15.81
2023-05-21T01:59:04.549Z,15.79
2023-05-21T02:01:31.047Z,15.77
2023-05-21T02:03:57.507Z,15.77
2023-05-21T02:06:24.092Z,15.77
2023-05-21T02:08:50.634Z,15.78
2023-05-21T02:11:17.110Z,15.69
2023-05-21T02:13:43.787Z,15.58
2023-05-21T02:16:10.966Z,15.51
2023-05-21T02:18:37.379Z,15.50
2023-05-21T02:21:03.944Z,15.57
2023-05-21T02:23:30.567Z,15.63
2023-05-21T02:25:57.305Z,15.65
2023-05-21T02:28:23.663Z,15.66
2023-05-21T02:30:50.119Z,15.64
2023-05-21T02:33:16.853Z,15.66
2023-05-21T02:35:44.745Z,15.65
2023-05-21T02:38:11.359Z,15.63
2023-05-21T02:40:37.865Z,15.54
2023-05-21T02:43:04.271Z,15.55
2023-05-21T02:45:30.854Z,15.55
2023-05-21T02:47:57.501Z,15.54
2023-05-21T02:50:24.465Z,15.50
2023-05-21T02:52:50.869Z,15.48
2023-05-21T02:55:17.472Z,15.48
2023-05-21T02:57:44.066Z,15.45
2023-05-21T03:00:10.540Z,15.38
2023-05-21T03:02:37.407Z,15.36
2023-05-21T03:05:03.852Z,15.24
2023-05-21T03:07:30.447Z,15.25
2023-05-21T03:09:56.945Z,15.25
2023-05-21T03:12:23.379Z,15.18
2023-05-21T03:14:49.891Z,15.17
2023-05-21T03:17:16.370Z,15.16
2023-05-21T03:19:42.919Z,15.20
2023-05-21T03:22:09.612Z,15.20
2023-05-21T03:24:36.064Z,15.20
2023-05-21T03:27:02.519Z,15.17
2023-05-21T03:29:28.948Z,15.10
2023-05-21T03:31:56.458Z,15.10
2023-05-21T03:34:23.337Z,15.12
2023-05-21T03:36:51.992Z,15.14
2023-05-21T03:39:18.370Z,15.15
2023-05-21T03:41:44.749Z,15.11
2023-05-21T03:44:11.291Z,15.11
2023-05-21T03:46:39.770Z,15.15
2023-05-21T03:49:06.174Z,15.14
2023-05-21T03:51:33.056Z,15.11
2023-05-21T03:53:59.454Z,15.09
2023-05-21T03:56:25.968Z,15.12
2023-05-21T03:58:52.459Z,15.05
2023-05-21T04:01:18.852Z,15.07
2023-05-21T04:03:45.405Z,15.17
2023-05-21T04:06:12.023Z,14.97
2023-05-21T04:08:38.486Z,14.97
2023-05-21T04:11:05.181Z,15.03
2023-05-21T04:13:31.724Z,15.04
2023-05-21T04:15:58.259Z,15.08
2023-05-21T04:18:24.696Z,15.12
2023-05-21T04:20:51.101Z,15.14
2023-05-21T04:23:17.599Z,15.16
2023-05-21T04:25:44.257Z,15.18
2023-05-21T04:28:10.706Z,15.20
2023-05-21T04:30:37.098Z,15.21
2023-05-21T04:33:03.594Z,15.24
2023-05-21T04:35:30.036Z,15.20
2023-05-21T04:37:56.608Z,15.24
2023-05-21T04:40:23.064Z,15.28
2023-05-21T04:42:49.476Z,15.29
2023-05-21T04:45:16.039Z,15.32
2023-05-21T04:47:42.786Z,15.32
2023-05-21T04:50:09.221Z,15.35
2023-05-21T04:52:35.835Z,15.35
2023-05-21T04:55:02.462Z,15.41
2023-05-21T04:57:28.910Z,15.42
2023-05-21T04:59:55.439Z,15.42
2023-05-21T05:02:21.976Z,15.39
2023-05-21T05:04:48.782Z,15.40
2023-05-21T05:07:15.230Z,15.43
2023-05-21T05:09:43.162Z,15.47
2023-05-21T05:12:09.589Z,15.55
2023-05-21T05:14:35.984Z,15.63
2023-05-21T05:17:02.488Z,15.69
2023-05-21T05:19:29.067Z,15.70
2023-05-21T05:21:55.527Z,15.76
2023-05-21T05:24:21.956Z,15.82
2023-05-21T05:26:48.449Z,15.80
2023-05-21T05:29:14.953Z,15.80
2023-05-21T05:31:41.391Z,15.85
2023-05-21T05:34:07.835Z,15.87
2023-05-21T05:36:34.234Z,15.93
2023-05-21T05:39:00.674Z,15.99
2023-05-21T05:41:27.096Z,16.04
2023-05-21T05:43:53.552Z,16.11
2023-05-21T05:46:20.027Z,16.14
2023-05-21T05:48:46.495Z,16.16
2023-05-21T05:51:12.985Z,16.20
2023-05-21T05:53:41.655Z,16.15
2023-05-21T05:56:08.100Z,16.14
2023-05-21T05:58:34.550Z,16.23
2023-05-21T06:01:00.993Z,16.31
2023-05-21T06:03:27.632Z,16.26
2023-05-21T06:05:54.889Z,16.20
2023-05-21T06:08:21.422Z,16.35
2023-05-21T06:10:48.054Z,16.32
2023-05-21T06:13:14.489Z,16.42
2023-05-21T06:15:40.941Z,16.38
2023-05-21T06:18:07.534Z,16.40
2023-05-21T06:20:34.048Z,16.49
2023-05-21T06:23:00.459Z,16.51
2023-05-21T06:25:27.075Z,16.59
2023-05-21T06:27:53.529Z,16.52
2023-05-21T06:30:19.993Z,16.61
2023-05-21T06:32:46.838Z,16.66
2023-05-21T06:35:13.520Z,16.69
2023-05-21T06:37:40.603Z,16.65
2023-05-21T06:40:07.516Z,16.61
2023-05-21T06:42:33.963Z,16.60
2023-05-21T06:45:00.486Z,16.65
2023-05-21T06:47:27.017Z,16.81
2023-05-21T06:49:53.697Z,16.87
2023-05-21T06:52:20.241Z,17.00
2023-05-21T06:54:46.898Z,17.02
2023-05-21T06:57:13.617Z,17.05
2023-05-21T06:59:40.162Z,17.12
2023-05-21T07:02:06.660Z,17.16
2023-05-21T07:04:33.186Z,17.10
2023-05-21T07:06:59.582Z,17.11
2023-05-21T07:09:25.988Z,17.19
2023-05-21T07:11:52.629Z,17.17
2023-05-21T07:14:19.070Z,17.19
2023-05-21T07:16:45.553Z,17.25
2023-05-21T07:19:12.043Z,17.24
2023-05-21T07:21:38.827Z,17.24
2023-05-21T07:24:05.192Z,17.28
2023-05-21T07:26:31.690Z,17.25
2023-05-21T07:28:58.136Z,17.36
2023-05-21T07:31:25.212Z,17.46
2023-05-21T07:33:51.766Z,17.46
2023-05-21T07:36:18.195Z,17.43
2023-05-21T07:38:44.580Z,17.44
2023-05-21T07:41:11.041Z,17.42
2023-05-21T07:43:37.452Z,17.57
2023-05-21T07:46:03.847Z,17.74
2023-05-21T07:48:30.253Z,17.71
2023-05-21T07:50:56.641Z,17.91
2023-05-21T07:53:23.263Z,17.86
2023-05-21T07:55:49.813Z,17.90
2023-05-21T07:58:16.259Z,17.98
2023-05-21T08:00:42.718Z,17.91
2023-05-21T08:03:09.289Z,18.01
2023-05-21T08:05:36.192Z,18.08
2023-05-21T08:08:02.919Z,17.96
2023-05-21T08:10:29.376Z,18.07
2023-05-21T08:12:56.017Z,18.12
2023-05-21T08:15:22.554Z,18.17
2023-05-21T08:17:49.047Z,18.27
2023-05-21T08:20:15.527Z,18.23
2023-05-21T08:22:42.031Z,18.21
2023-05-21T08:25:08.521Z,18.18
2023-05-21T08:27:37.923Z,18.26
2023-05-21T08:30:04.409Z,18.31
2023-05-21T08:32:30.967Z,18.38
2023-05-21T08:34:57.528Z,18.43
2023-05-21T08:37:24.123Z,18.48
2023-05-21T08:39:50.618Z,18.49
2023-05-21T08:42:25.627Z,18.62
2023-05-21T08:45:01.849Z,18.63
2023-05-21T08:47:28.648Z,18.68
2023-05-21T08:49:55.044Z,18.56
2023-05-21T08:52:21.376Z,18.58
2023-05-21T08:54:48.185Z,18.58
2023-05-21T08:57:14.558Z,18.65
2023-05-21T08:59:40.980Z,18.68
2023-05-21T09:02:07.362Z,18.75
2023-05-21T09:04:33.836Z,18.86
2023-05-21T09:07:00.464Z,18.89
2023-05-21T09:09:26.898Z,18.93
2023-05-21T09:11:53.308Z,18.94
2023-05-21T09:14:19.775Z,18.94
2023-05-21T09:16:46.282Z,18.89
2023-05-21T09:19:13.100Z,18.86
2023-05-21T09:21:39.482Z,18.93
2023-05-21T09:24:05.894Z,18.97
2023-05-21T09:26:32.555Z,18.98
2023-05-21T09:28:59.956Z,18.94
2023-05-21T09:31:26.514Z,19.00
2023-05-21T09:33:52.933Z,19.04
2023-05-21T09:36:19.378Z,19.18
2023-05-21T09:38:45.875Z,19.18
2023-05-21T09:41:12.611Z,19.09
2023-05-21T09:43:38.992Z,19.27
2023-05-21T09:46:05.653Z,19.24
2023-05-21T09:48:32.129Z,19.29
2023-05-21T09:50:58.772Z,19.26
2023-05-21T09:53:25.209Z,19.39
2023-05-21T09:55:51.586Z,19.33
2023-05-21T09:58:18.020Z,19.42
2023-05-21T10:00:44.485Z,19.46
2023-05-21T10:03:10.989Z,19.49
2023-05-21T10:05:37.442Z,19.61
2023-05-21T10:08:03.988Z,19.60
2023-05-21T10:10:30.715Z,19.57
2023-05-21T10:12:57.207Z,19.61
2023-05-21T10:15:23.584Z,19.73
2023-05-21T10:17:50.077Z,19.74
2023-05-21T10:20:16.690Z,19.81
2023-05-21T10:22:43.118Z,19.70
2023-05-21T10:25:09.573Z,19.80
2023-05-21T10:27:35.952Z,19.80
2023-05-21T10:30:02.398Z,19.91
2023-05-21T10:32:28.935Z,19.91
2023-05-21T10:34:55.385Z,20.00
2023-05-21T10:37:21.797Z,19.99
2023-05-21T10:39:48.156Z,20.00
2023-05-21T10:42:14.542Z,20.11
2023-05-21T10:44:40.946Z,20.10
2023-05-21T10:47:07.621Z,20.14
2023-05-21T10:49:34.196Z,20.16
2023-05-21T10:52:00.683Z,20.28
2023-05-21T10:54:27.025Z,20.23
2023-05-21T10:56:53.956Z,20.35
2023-05-21T10:59:20.381Z,20.45
2023-05-21T11:01:47.235Z,20.57
2023-05-21T11:04:13.802Z,20.49
2023-05-21T11:06:40.821Z,20.52
2023-05-21T11:09:07.312Z,20.58
2023-05-21T11:11:33.986Z,20.67
2023-05-21T11:14:00.384Z,20.69
2023-05-21T11:16:26.773Z,20.71
2023-05-21T11:18:53.248Z,20.80
2023-05-21T11:21:19.753Z,20.83
2023-05-21T11:23:46.403Z,20.94
2023-05-21T11:26:12.984Z,20.96
2023-05-21T11:28:39.429Z,21.05
2023-05-21T11:31:06.019Z,21.10
2023-05-21T11:33:32.641Z,21.13
2023-05-21T11:35:59.049Z,21.14
2023-05-21T11:38:25.418Z,21.16
2023-05-21T11:40:52.051Z,21.20
2023-05-21T11:43:18.893Z,21.35
2023-05-21T11:45:45.403Z,21.41
2023-05-21T11:48:12.410Z,21.39
2023-05-21T11:50:41.968Z,21.43
2023-05-21T11:53:08.508Z,21.44
2023-05-21T11:55:34.926Z,21.52
2023-05-21T11:58:01.403Z,21.51
2023-05-21T12:00:27.859Z,21.56
2023-05-21T12:02:54.692Z,21.67
2023-05-21T12:05:21.380Z,21.67
2023-05-21T12:07:47.856Z,21.72
2023-05-21T12:10:14.419Z,21.79
2023-05-21T12:12:54.090Z,21.80
2023-05-21T12:15:22.476Z,21.78
2023-05-21T12:17:49.010Z,21.88
2023-05-21T12:20:15.393Z,21.94
2023-05-21T12:22:41.843Z,22.02
2023-05-21T12:25:08.342Z,22.04
2023-05-21T12:27:35.191Z,22.10
2023-05-21T12:30:01.697Z,22.20
2023-05-21T12:32:28.312Z,22.22
2023-05-21T12:34:55.000Z,22.16
2023-05-21T12:37:21.469Z,22.27
2023-05-21T12:39:47.996Z,22.49
2023-05-21T12:42:14.412Z,22.49
2023-05-21T12:44:41.215Z,22.51
2023-05-21T12:47:07.584Z,22.51
2023-05-21T12:49:34.004Z,22.62
2023-05-21T12:52:00.440Z,22.63
2023-05-21T12:54:26.990Z,22.65
2023-05-21T12:56:53.405Z,22.74
2023-05-21T12:59:19.950Z,22.80
2023-05-21T13:01:46.734Z,22.91
2023-05-21T13:04:13.209Z,22.97
2023-05-21T13:06:39.988Z,23.06
2023-05-21T13:09:07.442Z,23.14
2023-05-21T13:11:33.888Z,23.19
2023-05-21T13:14:00.317Z,23.26
2023-05-21T13:16:26.843Z,23.27
2023-05-21T13:18:53.302Z,23.19
2023-05-21T13:21:21.103Z,23.16
2023-05-21T13:23:47.498Z,23.11
2023-05-21T13:26:13.917Z,23.15
2023-05-21T13:28:42.358Z,23.23
2023-05-21T13:31:09.261Z,23.37
2023-05-21T13:33:36.069Z,23.36
2023-05-21T13:36:02.548Z,23.46
2023-05-21T13:38:28.975Z,23.53
2023-05-21T13:40:55.431Z,23.53
2023-05-21T13:43:21.850Z,23.71
2023-05-21T13:45:50.019Z,23.81
2023-05-21T13:48:17.081Z,23.87
2023-05-21T13:50:43.681Z,24.03
2023-05-21T13:53:10.194Z,24.10
2023-05-21T13:55:37.048Z,24.23
2023-05-21T13:58:03.483Z,24.29
2023-05-21T14:00:29.960Z,24.30
2023-05-21T14:02:56.817Z,24.42
2023-05-21T14:05:23.476Z,24.52
2023-05-21T14:07:49.903Z,24.56
2023-05-21T14:10:16.351Z,24.57
2023-05-21T14:12:42.843Z,24.65
2023-05-21T14:15:09.260Z,24.68
2023-05-21T14:17:35.820Z,24.60
2023-05-21T14:20:03.471Z,24.61
2023-05-21T14:22:29.934Z,24.45
2023-05-21T14:24:56.472Z,24.58
2023-05-21T14:27:23.432Z,24.58
2023-05-21T14:29:49.877Z,24.44
2023-05-21T14:32:16.306Z,24.42
2023-05-21T14:34:42.854Z,24.49
2023-05-21T14:37:09.282Z,24.52
2023-05-21T14:39:35.757Z,24.53
2023-05-21T14:42:02.275Z,24.58
2023-05-21T14:44:28.690Z,24.54
2023-05-21T14:46:55.117Z,24.56
2023-05-21T14:49:21.566Z,24.64
2023-05-21T14:51:48.038Z,24.71
2023-05-21T14:54:14.830Z,24.82
2023-05-21T14:56:41.374Z,24.87
2023-05-21T14:59:07.732Z,24.87
2023-05-21T15:01:34.331Z,24.85
2023-05-21T15:04:01.019Z,24.93
2023-05-21T15:06:27.613Z,24.98
2023-05-21T15:08:54.395Z,25.04
2023-05-21T15:11:20.824Z,25.07
2023-05-21T15:13:47.250Z,25.16
2023-05-21T15:16:14.225Z,25.20
2023-05-21T15:18:44.041Z,25.23
2023-05-21T15:21:10.507Z,25.28
2023-05-21T15:23:37.296Z,25.33
2023-05-21T15:26:03.885Z,25.34
2023-05-21T15:28:30.309Z,25.30
2023-05-21T15:30:56.934Z,25.36
2023-05-21T15:33:23.293Z,25.42
2023-05-21T15:35:49.920Z,25.43
2023-05-21T15:38:16.469Z,25.50
2023-05-21T15:40:42.973Z,25.50
2023-05-21T15:43:09.609Z,25.50
2023-05-21T15:45:36.404Z,25.53
2023-05-21T15:48:04.139Z,25.60
2023-05-21T15:50:30.829Z,25.57
2023-05-21T15:52:57.580Z,25.60
2023-05-21T15:55:24.304Z,25.65
2023-05-21T15:57:51.418Z,25.63
2023-05-21T16:00:18.166Z,25.70
2023-05-21T16:02:44.841Z,25.71
2023-05-21T16:05:11.736Z,25.85
2023-05-21T16:07:38.614Z,25.85
2023-05-21T16:10:05.154Z,25.86
2023-05-21T16:12:31.691Z,25.92
2023-05-21T16:14:58.562Z,25.92
2023-05-21T16:17:25.396Z,25.93
2023-05-21T16:19:52.209Z,25.85
2023-05-21T16:22:19.149Z,25.88
2023-05-21T16:24:46.220Z,25.92
2023-05-21T16:27:12.992Z,25.96
2023-05-21T16:29:41.019Z,26.01
2023-05-21T16:32:08.231Z,26.08
2023-05-21T16:34:35.336Z,26.11
2023-05-21T16:37:02.407Z,26.12
2023-05-21T16:39:29.542Z,26.14
2023-05-21T16:41:56.805Z,26.10
2023-05-21T16:44:25.233Z,26.13
2023-05-21T16:46:52.496Z,26.08
2023-05-21T16:49:20.064Z,26.01
2023-05-21T16:51:48.188Z,26.01
2023-05-21T16:54:15.290Z,26.06
2023-05-21T16:56:42.438Z,26.03
2023-05-21T16:59:09.627Z,25.95
2023-05-21T17:01:36.889Z,25.92
2023-05-21T17:04:04.692Z,25.81
2023-05-21T17:06:33.087Z,25.75
2023-05-21T17:09:00.380Z,25.71
2023-05-21T17:11:27.478Z,25.65
2023-05-21T17:13:54.604Z,25.65
2023-05-21T17:16:22.376Z,25.71
2023-05-21T17:18:49.951Z,25.64
2023-05-21T17:21:17.698Z,25.62
2023-05-21T17:23:45.408Z,25.52
2023-05-21T17:26:12.578Z,25.40
2023-05-21T17:28:40.172Z,25.26
2023-05-21T17:31:08.510Z,25.26
2023-05-21T17:33:36.113Z,25.21
2023-05-21T17:36:03.289Z,25.19
2023-05-21T17:38:30.483Z,25.09
2023-05-21T17:40:57.689Z,24.99
2023-05-21T17:43:24.883Z,24.98
2023-05-21T17:45:52.375Z,24.97
2023-05-21T17:48:19.617Z,24.92
2023-05-21T17:50:47.009Z,24.92
2023-05-21T17:53:16.693Z,24.90
2023-05-21T17:55:44.435Z,24.87
2023-05-21T17:58:13.736Z,24.86
2023-05-21T18:00:41.051Z,24.83
2023-05-21T18:03:08.335Z,24.77
2023-05-21T18:05:36.225Z,24.73
2023-05-21T18:08:03.776Z,24.71
2023-05-21T18:10:31.025Z,24.67
2023-05-21T18:12:58.584Z,24.66
2023-05-21T18:15:26.443Z,24.65
2023-05-21T18:17:53.655Z,24.63
2023-05-21T18:20:21.260Z,24.62
2023-05-21T18:22:48.902Z,24.59
2023-05-21T18:25:16.199Z,24.57
2023-05-21T18:27:43.812Z,24.53
2023-05-21T18:30:11.039Z,24.50
2023-05-21T18:32:38.465Z,24.45
2023-05-21T18:35:05.870Z,24.35
2023-05-21T18:37:33.267Z,24.24
2023-05-21T18:40:00.516Z,24.20
2023-05-21T18:42:28.141Z,24.20
2023-05-21T18:44:56.152Z,23.91
2023-05-21T18:47:23.488Z,23.97
2023-05-21T18:49:51.772Z,24.00
2023-05-21T18:52:18.920Z,23.95
2023-05-21T18:54:46.270Z,23.86
2023-05-21T18:57:13.432Z,23.79
2023-05-21T18:59:40.704Z,23.68
2023-05-21T19:02:08.052Z,23.69
2023-05-21T19:04:35.523Z,23.65
2023-05-21T19:07:02.756Z,23.61
2023-05-21T19:09:30.022Z,23.60
2023-05-21T19:11:57.178Z,23.64
2023-05-21T19:14:24.327Z,23.03
2023-05-21T19:16:52.290Z,23.22
2023-05-21T19:19:19.585Z,23.34
2023-05-21T19:21:48.451Z,23.35
2023-05-21T19:24:16.054Z,23.37
2023-05-21T19:26:43.265Z,23.40
2023-05-21T19:29:13.915Z,23.24
2023-05-21T19:31:41.134Z,23.27
2023-05-21T19:34:08.369Z,23.27
2023-05-21T19:36:51.495Z,23.31
2023-05-21T19:39:22.009Z,23.32
2023-05-21T19:41:49.376Z,23.26
2023-05-21T19:44:16.728Z,23.24
2023-05-21T19:46:44.113Z,23.21
2023-05-21T19:49:11.455Z,23.11
2023-05-21T19:51:38.691Z,23.02
2023-05-21T19:54:05.934Z,22.99
2023-05-21T19:56:34.031Z,22.99
2023-05-21T19:59:01.514Z,22.96
2023-05-21T20:01:28.875Z,22.95
2023-05-21T20:03:56.250Z,22.92
2023-05-21T20:06:23.914Z,22.91
2023-05-21T20:08:51.159Z,22.83
2023-05-21T20:11:18.404Z,22.83
2023-05-21T20:13:45.596Z,22.82
2023-05-21T20:16:12.966Z,22.78
2023-05-21T20:18:40.101Z,22.74
2023-05-21T20:21:07.350Z,22.72
2023-05-21T20:23:34.513Z,22.71
2023-05-21T20:26:01.778Z,22.60
2023-05-21T20:28:28.991Z,22.53
2023-05-21T20:30:56.587Z,22.51
2023-05-21T20:33:24.784Z,22.41
2023-05-21T20:35:51.867Z,22.38
2023-05-21T20:38:19.251Z,22.38
2023-05-21T20:40:46.348Z,22.36
2023-05-21T20:43:14.417Z,22.35
2023-05-21T20:45:41.480Z,22.32
2023-05-21T20:48:09.096Z,22.19
2023-05-21T20:50:38.784Z,22.24
2023-05-21T20:53:06.055Z,22.27
2023-05-21T20:55:33.075Z,22.24
2023-05-21T20:58:00.094Z,22.22
2023-05-21T21:00:26.541Z,22.16
2023-05-21T21:02:53.125Z,22.06
2023-05-21T21:05:20.290Z,22.00
2023-05-21T21:07:46.817Z,21.90
2023-05-21T21:10:13.282Z,21.90
2023-05-21T21:12:39.954Z,21.83
2023-05-21T21:15:06.458Z,21.84
2023-05-21T21:17:32.964Z,21.84
2023-05-21T21:20:01.465Z,21.82
2023-05-21T21:22:27.955Z,21.73
2023-05-21T21:24:54.534Z,21.75
2023-05-21T21:27:20.959Z,21.70
2023-05-21T21:29:47.502Z,21.68
2023-05-21T21:32:14.106Z,21.64
2023-05-21T21:34:40.573Z,21.46
2023-05-21T21:37:07.001Z,21.45
2023-05-21T21:39:33.415Z,21.42
2023-05-21T21:41:59.970Z,21.42
2023-05-21T21:44:26.658Z,21.41
2023-05-21T21:46:53.163Z,21.39
2023-05-21T21:49:19.650Z,21.32
2023-05-21T21:51:46.062Z,21.34
2023-05-21T21:54:12.965Z,21.31
2023-05-21T21:56:39.384Z,21.25
2023-05-21T21:59:05.984Z,21.20
2023-05-21T22:01:32.513Z,21.20
2023-05-21T22:03:59.273Z,21.17
2023-05-21T22:06:25.777Z,21.15
2023-05-21T22:08:52.285Z,21.13
2023-05-21T22:11:18.802Z,21.03
2023-05-21T22:13:45.197Z,21.03
2023-05-21T22:16:13.034Z,20.98
2023-05-21T22:18:41.240Z,20.93
2023-05-21T22:21:09.178Z,20.67
2023-05-21T22:23:35.947Z,20.59
2023-05-21T22:26:02.351Z,20.40
2023-05-21T22:28:29.086Z,20.44
2023-05-21T22:30:55.582Z,20.48
2023-05-21T22:33:22.092Z,20.48
2023-05-21T22:35:48.585Z,20.48
2023-05-21T22:38:14.986Z,20.39
2023-05-21T22:40:41.426Z,20.39
2023-05-21T22:43:07.980Z,20.33
2023-05-21T22:45:34.607Z,20.34
2023-05-21T22:48:01.060Z,20.37
2023-05-21T22:50:27.633Z,20.44
2023-05-21T22:52:55.154Z,20.39
2023-05-21T22:55:21.863Z,20.37
2023-05-21T22:57:48.304Z,20.36
2023-05-21T23:00:14.713Z,20.34
2023-05-21T23:02:42.076Z,20.32
2023-05-21T23:05:08.626Z,20.32
2023-05-21T23:07:35.099Z,20.14
2023-05-21T23:10:01.639Z,20.14
2023-05-21T23:12:28.023Z,20.09
2023-05-21T23:14:54.453Z,20.04
2023-05-21T23:17:21.010Z,20.09
2023-05-21T23:19:47.457Z,20.07
2023-05-21T23:22:14.088Z,20.03
2023-05-21T23:24:40.528Z,20.06
2023-05-21T23:27:07.054Z,20.05
2023-05-21T23:29:33.470Z,19.95
2023-05-21T23:32:00.104Z,19.88
2023-05-21T23:34:26.641Z,19.84
2023-05-21T23:36:59.455Z,19.86
2023-05-21T23:39:26.823Z,19.85
2023-05-21T23:41:53.355Z,19.81
2023-05-21T23:44:19.783Z,19.83
2023-05-21T23:46:46.141Z,19.70
2023-05-21T23:49:13.076Z,19.60
2023-05-21T23:51:39.782Z,19.67
2023-05-21T23:54:06.366Z,19.49
2023-05-21T23:56:32.764Z,19.49
2023-05-21T23:58:59.672Z,19.53
